Time;durP1;ratioP1;P1;durP2;ratioP2;P2;SDS_P1;SDS_P2;PMS_P1;PMS_P2;Temp;Humidity;BMP_temperature;BMP_pressure;BME280_temperature;BME280_humidity;BME280_pressure;Samples;Min_cycle;Max_cycle;Signal;HPM_P1;HPM_P2
2022/04/01 00:01:58;;;;;;;;;3.25;1.50;;;;;2.83;58.48;100187.84;5076789;28;45349;-81
2022/04/01 00:04:24;;;;;;;;;3.50;2.25;;;;;3.31;59.51;100277.97;5071333;28;45312;-80
2022/04/01 00:06:49;;;;;;;;;5.00;3.00;;;;;3.31;59.49;100283.19;5076918;28;45512;-80
2022/04/01 00:09:14;;;;;;;;;1.00;1.00;;;;;3.24;59.47;100268.03;5072734;27;46356;-80
2022/04/01 00:11:40;;;;;;;;;4.50;2.00;;;;;3.14;59.16;100242.38;5076149;28;45455;-79
2022/04/01 00:14:05;;;;;;;;;5.00;0.75;;;;;3.38;58.79;100270.38;5071648;28;45281;-80
2022/04/01 00:16:31;;;;;;;;;4.25;2.00;;;;;3.35;59.44;100265.91;5076389;28;45294;-80
2022/04/01 00:18:57;;;;;;;;;3.00;1.00;;;;;3.32;59.24;100258.84;5074772;28;45461;-77
2022/04/01 00:21:23;;;;;;;;;2.00;1.00;;;;;3.01;59.18;100206.97;5077386;28;46891;-76
2022/04/01 00:23:48;;;;;;;;;1.00;1.00;;;;;3.13;59.27;100233.59;5079523;27;45732;-78
2022/04/01 00:26:14;;;;;;;;;0.50;0.25;;;;;3.02;59.44;100224.41;5079215;28;45441;-81
2022/04/01 00:28:39;;;;;;;;;3.50;3.50;;;;;3.12;58.81;100239.66;5071620;28;45571;-77
2022/04/01 00:31:04;;;;;;;;;3.00;1.75;;;;;3.02;59.53;100231.34;5082778;28;46128;-81
2022/04/01 00:33:31;;;;;;;;;6.00;2.25;;;;;3.21;59.46;100256.56;5081948;27;45334;-82
2022/04/01 00:35:57;;;;;;;;;0.00;0.00;;;;;3.21;59.42;100269.63;5081004;28;44657;-77
2022/04/01 00:38:23;;;;;;;;;1.00;0.75;;;;;3.05;59.50;100221.97;5074488;28;45413;-76
2022/04/01 00:40:51;;;;;;;;;2.75;0.75;;;;;3.14;59.52;100245.84;5096872;27;47507;-80
2022/04/01 00:43:16;;;;;;;;;1.00;1.00;;;;;3.21;59.80;100256.56;5070574;28;45465;-80
2022/04/01 00:45:41;;;;;;;;;1.75;1.25;;;;;3.17;59.58;100249.44;5079259;28;45469;-81
2022/04/01 00:48:07;;;;;;;;;1.00;1.00;;;;;3.16;59.71;100250.25;5077108;28;45673;-80
2022/04/01 00:50:33;;;;;;;;;2.00;0.00;;;;;3.09;59.46;100231.69;5081988;27;45369;-81
2022/04/01 00:52:59;;;;;;;;;3.25;1.00;;;;;3.17;59.89;100245.09;5079286;28;45253;-79
2022/04/01 00:55:27;;;;;;;;;2.00;0.00;;;;;2.91;59.71;100195.22;5097690;27;45465;-78
2022/04/01 00:57:53;;;;;;;;;1.25;1.00;;;;;3.14;59.27;100222.34;5079510;27;45452;-79
2022/04/01 01:00:19;;;;;;;;;0.75;0.75;;;;;2.93;59.78;100184.84;5070420;28;48001;-80
2022/04/01 01:02:45;;;;;;;;;2.00;1.00;;;;;3.08;59.58;100197.66;5076799;28;45477;-79
2022/04/01 01:05:10;;;;;;;;;2.00;0.75;;;;;2.95;59.54;100188.41;5072914;28;45290;-79
2022/04/01 01:07:42;;;;;;;;;1.00;1.00;;;;;3.24;60.04;100225.38;5081026;27;45746;-80
2022/04/01 01:10:10;;;;;;;;;5.50;1.00;;;;;2.86;60.51;100160.19;5093590;27;48505;-78
2022/04/01 01:12:37;;;;;;;;;1.00;0.25;;;;;3.19;60.00;100206.88;5073708;28;45473;-79
2022/04/01 01:15:11;;;;;;;;;1.50;0.00;;;;;3.01;60.29;100172.13;5075209;27;45328;-79
2022/04/01 01:17:39;;;;;;;;;4.75;0.00;;;;;3.07;60.42;100175.00;5080653;27;45457;-79
2022/04/01 01:20:12;;;;;;;;;2.25;0.00;;;;;3.23;61.17;100200.09;5076435;27;45328;-75
2022/04/01 01:22:41;;;;;;;;;1.50;0.00;;;;;3.27;61.72;100208.09;5094868;27;45548;-78
2022/04/01 01:25:10;;;;;;;;;4.75;0.00;;;;;3.21;61.52;100188.69;5080000;28;45307;-77
2022/04/01 01:27:36;;;;;;;;;1.00;1.00;;;;;3.08;61.85;100172.47;5077848;28;46476;-79
2022/04/01 01:30:02;;;;;;;;;3.50;0.00;;;;;3.27;61.79;100188.94;5073499;28;45398;-79
2022/04/01 01:32:29;;;;;;;;;0.50;0.50;;;;;3.20;62.76;100174.72;5078770;28;45443;-79
2022/04/01 01:34:55;;;;;;;;;1.00;1.00;;;;;3.30;62.30;100189.06;5072166;28;45693;-78
2022/04/01 01:37:21;;;;;;;;;1.00;0.00;;;;;3.17;61.99;100158.94;5080385;28;45133;-77
2022/04/01 01:39:46;;;;;;;;;0.25;0.25;;;;;3.33;62.90;100186.59;5071825;28;45266;-78
2022/04/01 01:42:12;;;;;;;;;0.75;0.00;;;;;3.22;62.27;100160.03;5076033;28;45446;-80
2022/04/01 01:44:37;;;;;;;;;0.00;0.00;;;;;3.05;62.55;100116.59;5069927;28;45286;-80
2022/04/01 01:47:04;;;;;;;;;0.00;0.00;;;;;3.17;63.62;100152.81;5090461;27;45960;-77
2022/04/01 01:49:29;;;;;;;;;1.25;0.50;;;;;3.20;62.92;100147.72;5077410;28;46758;-79
2022/04/01 01:54:45;;;;;;;;;0.00;0.00;;;;;3.04;63.46;100113.09;5069577;28;45323;-78
2022/04/01 01:57:14;;;;;;;;;2.00;0.75;;;;;3.09;63.46;100124.66;5078578;28;45205;-80
2022/04/01 01:59:39;;;;;;;;;1.00;1.00;;;;;3.05;63.46;100114.91;5071079;28;45349;-81
2022/04/01 02:02:05;;;;;;;;;3.25;2.00;;;;;3.09;63.54;100108.97;5079103;28;45324;-80
2022/04/01 02:04:35;;;;;;;;;4.25;0.75;;;;;3.13;64.56;100138.72;5072388;27;45374;-80
2022/04/01 02:07:02;;;;;;;;;1.00;1.00;;;;;3.08;64.88;100133.31;5097566;27;46568;-81
2022/04/01 02:09:27;;;;;;;;;2.00;1.00;;;;;2.95;65.22;100110.09;5072638;28;45319;-81
2022/04/01 02:11:53;;;;;;;;;1.00;1.00;;;;;2.86;65.26;100097.56;5079697;27;45204;-80
2022/04/01 02:14:18;;;;;;;;;2.00;2.00;;;;;3.02;65.74;100135.63;5074255;27;45347;-80
2022/04/01 02:16:44;;;;;;;;;4.00;2.00;;;;;2.88;66.24;100116.75;5066186;28;45501;-81
2022/04/01 02:19:11;;;;;;;;;1.25;1.00;;;;;2.96;67.07;100131.88;5074945;27;46128;-80
2022/04/01 02:21:36;;;;;;;;;1.00;1.00;;;;;2.94;67.47;100125.69;5066387;28;45261;-80
2022/04/01 02:24:06;;;;;;;;;4.00;0.75;;;;;2.94;67.33;100126.59;5104272;27;45390;-79
2022/04/01 02:26:31;;;;;;;;;0.50;0.50;;;;;2.84;68.15;100107.03;5079943;27;45415;-81
2022/04/01 02:28:59;;;;;;;;;4.00;2.00;;;;;2.68;68.58;100081.97;5071387;27;46478;-80
2022/04/01 02:31:24;;;;;;;;;1.00;1.00;;;;;2.80;68.15;100098.97;5080971;27;45565;-79
2022/04/01 02:33:50;;;;;;;;;4.00;2.00;;;;;2.71;68.33;100094.25;5071117;27;45416;-79
2022/04/01 02:36:15;;;;;;;;;1.75;1.50;;;;;2.75;68.14;100104.03;5080708;27;45269;-77
2022/04/01 02:38:42;;;;;;;;;1.00;0.75;;;;;2.59;69.49;100078.94;5070701;27;45460;-79
2022/04/01 02:41:11;;;;;;;;;2.25;1.75;;;;;2.73;69.74;100115.22;5080170;28;45396;-76
2022/04/01 02:43:37;;;;;;;;;3.00;1.00;;;;;2.63;69.42;100104.38;5069816;27;45394;-80
2022/04/01 02:46:05;;;;;;;;;3.75;1.00;;;;;2.60;69.92;100104.22;5079877;28;45252;-79
2022/04/01 02:48:30;;;;;;;;;1.00;0.00;;;;;2.60;70.07;100098.97;5073483;27;47435;-79
2022/04/01 02:50:56;;;;;;;;;1.00;1.00;;;;;2.29;71.22;100067.13;5080338;28;45279;-79
2022/04/01 02:53:21;;;;;;;;;4.75;1.50;;;;;2.58;71.51;100118.03;5077751;28;45303;-77
2022/04/01 02:55:47;;;;;;;;;4.00;1.00;;;;;2.44;72.37;100099.16;5068851;28;45688;-76
2022/04/01 02:58:13;;;;;;;;;1.00;1.00;;;;;2.40;71.63;100087.66;5092947;27;45497;-81
2022/04/01 03:00:39;;;;;;;;;1.75;1.00;;;;;2.49;72.25;100118.47;5070552;28;45417;-79
2022/04/01 03:03:06;;;;;;;;;2.00;1.00;;;;;2.22;72.40;100071.19;5080951;28;45262;-79
2022/04/01 03:05:33;;;;;;;;;3.75;0.75;;;;;2.44;72.43;100106.97;5082751;27;46171;-79
2022/04/01 03:07:58;;;;;;;;;1.00;1.00;;;;;2.36;72.66;100098.78;5079793;28;45434;-79
2022/04/01 03:10:24;;;;;;;;;1.25;1.00;;;;;2.26;72.47;100067.00;5074321;28;45478;-76
2022/04/01 03:12:50;;;;;;;;;2.00;1.00;;;;;2.20;72.23;100068.50;5081024;28;45277;-77
2022/04/01 03:15:17;;;;;;;;;1.00;1.00;;;;;2.35;73.00;100094.41;5085314;27;47260;-78
2022/04/01 03:17:42;;;;;;;;;4.00;1.25;;;;;2.34;73.17;100097.81;5072302;27;46730;-78
2022/04/01 03:20:13;;;;;;;;;2.00;1.00;;;;;2.19;73.43;100063.25;5079952;27;45381;-77
2022/04/01 03:22:42;;;;;;;;;1.00;1.00;;;;;2.31;73.06;100089.84;5079342;27;45300;-77
2022/04/01 03:25:12;;;;;;;;;0.00;0.00;;;;;2.13;72.81;100052.50;5081364;28;45586;-75
2022/04/01 03:27:39;;;;;;;;;2.50;1.00;;;;;2.34;72.79;100091.72;5078501;28;45272;-76
2022/04/01 03:30:09;;;;;;;;;1.00;1.00;;;;;2.32;73.40;100077.72;5079518;28;45317;-77
2022/04/01 03:32:38;;;;;;;;;1.00;1.00;;;;;2.31;74.33;100070.72;5077570;28;45279;-78
2022/04/01 03:35:24;;;;;;;;;0.00;0.00;;;;;2.31;73.30;100078.53;5071906;28;45491;-78
2022/04/01 03:37:50;;;;;;;;;2.00;0.75;;;;;2.21;74.71;100072.91;5075475;28;45480;-78
2022/04/01 03:40:16;;;;;;;;;0.50;0.50;;;;;2.10;72.87;100034.13;5073194;28;45354;-80
2022/04/01 03:42:47;;;;;;;;;0.00;0.00;;;;;2.26;73.90;100060.06;5076916;28;45423;-80
2022/04/01 03:45:14;;;;;;;;;0.00;0.00;;;;;2.30;73.81;100079.34;5073127;28;45297;-79
2022/04/01 03:47:59;;;;;;;;;0.75;0.75;;;;;2.20;74.58;100072.84;5075491;28;48390;-79
2022/04/01 03:50:31;;;;;;;;;1.00;1.00;;;;;2.29;75.40;100077.56;5079097;27;45434;-78
2022/04/01 03:53:01;;;;;;;;;2.00;1.00;;;;;2.24;74.72;100056.50;5076377;27;45340;-80
2022/04/01 03:55:31;;;;;;;;;1.75;0.75;;;;;2.32;73.22;100060.34;5068592;27;45412;-80
2022/04/01 03:58:08;;;;;;;;;1.00;1.00;;;;;2.35;73.35;100064.81;5077990;27;46058;-79
2022/04/01 04:00:33;;;;;;;;;3.25;0.50;;;;;2.20;73.56;100034.59;5107898;27;45248;-79
2022/04/01 04:03:06;;;;;;;;;1.00;0.00;;;;;2.39;74.06;100071.97;5078704;27;45339;-81
2022/04/01 04:05:33;;;;;;;;;1.00;1.00;;;;;2.28;72.66;100036.69;5077834;28;46976;-79
2022/04/01 04:08:01;;;;;;;;;1.50;1.50;;;;;2.41;73.67;100063.38;5078144;27;45890;-80
2022/04/01 04:10:29;;;;;;;;;2.00;2.00;;;;;2.38;74.28;100060.66;5071535;28;45368;-79
2022/04/01 04:12:56;;;;;;;;;6.25;1.75;;;;;2.42;72.92;100062.56;5078005;28;45308;-78
2022/04/01 04:15:26;;;;;;;;;1.75;1.00;;;;;2.43;73.52;100066.03;5082458;27;46345;-79
2022/04/01 04:17:58;;;;;;;;;4.00;1.50;;;;;2.45;73.59;100060.06;5078247;28;46177;-77
2022/04/01 04:20:34;;;;;;;;;1.00;1.00;;;;;2.45;73.50;100057.47;5073402;28;45224;-79
2022/04/01 04:23:10;;;;;;;;;3.25;1.50;;;;;2.46;72.93;100064.50;5073713;28;45390;-80
2022/04/01 04:25:37;;;;;;;;;1.00;1.00;;;;;2.49;73.96;100065.44;5075207;28;45335;-79
2022/04/01 04:28:14;;;;;;;;;1.75;1.75;;;;;2.48;73.35;100069.75;5076056;28;48541;-78
2022/04/01 04:30:49;;;;;;;;;2.50;1.00;;;;;2.47;74.04;100062.78;5078402;28;45373;-80
2022/04/01 04:33:17;;;;;;;;;1.00;1.00;;;;;2.46;73.07;100074.00;5071458;27;45266;-78
2022/04/01 04:35:44;;;;;;;;;3.50;1.00;;;;;2.37;73.63;100058.84;5075839;28;45399;-78
2022/04/01 04:38:11;;;;;;;;;1.00;1.00;;;;;2.47;73.34;100068.88;5072346;28;45478;-80
2022/04/01 04:40:37;;;;;;;;;4.00;1.50;;;;;2.50;72.86;100073.34;5090564;27;45402;-79
2022/04/01 04:43:03;;;;;;;;;1.00;1.00;;;;;2.52;72.90;100063.88;5073238;28;45398;-76
2022/04/01 04:45:29;;;;;;;;;2.00;1.00;;;;;1.78;73.16;99947.56;5078421;28;45483;-78
2022/04/01 04:47:55;;;;;;;;;4.00;1.25;;;;;2.58;72.88;100078.91;5071588;28;46071;-77
2022/04/01 04:50:21;;;;;;;;;1.00;1.00;;;;;2.48;73.01;100064.53;5080480;27;45294;-76
2022/04/01 04:52:55;;;;;;;;;5.00;4.00;;;;;2.50;72.53;100070.72;5077603;28;45425;-78
2022/04/01 04:55:22;;;;;;;;;1.00;1.00;;;;;2.63;72.19;100085.19;5067265;28;45524;-78
2022/04/01 04:57:49;;;;;;;;;1.75;1.50;;;;;2.58;72.39;100078.91;5066791;28;46474;-79
2022/04/01 05:00:19;;;;;;;;;1.00;1.00;;;;;2.44;71.93;100060.91;5068471;27;45405;-78
2022/04/01 05:03:09;;;;;;;;;1.00;1.00;;;;;2.72;71.08;100097.75;5077657;27;45365;-79
2022/04/01 05:05:51;;;;;;;;;6.00;4.75;;;;;2.73;70.91;100096.94;5077995;27;45355;-79
2022/04/01 05:08:29;;;;;;;;;3.50;3.50;;;;;2.75;70.27;100097.91;5077880;27;45926;-79
2022/04/01 05:11:00;;;;;;;;;4.00;1.00;;;;;2.75;70.85;100101.41;5079912;28;45363;-75
2022/04/01 05:13:36;;;;;;;;;14.00;12.75;;;;;2.59;70.48;100073.75;5080749;27;46028;-79
2022/04/01 05:16:10;;;;;;;;;4.00;4.00;;;;;2.68;70.76;100087.19;5075940;28;45518;-78
2022/04/01 05:18:46;;;;;;;;;4.50;2.75;;;;;2.53;71.13;100065.66;5081216;28;45303;-80
2022/04/01 05:21:23;;;;;;;;;2.00;2.00;;;;;2.75;71.28;100108.34;5079932;28;45249;-79
2022/04/01 05:24:01;;;;;;;;;3.50;3.50;;;;;2.81;70.80;100119.06;5075928;28;45383;-77
2022/04/01 05:26:40;;;;;;;;;6.00;4.75;;;;;2.64;71.18;100089.59;5081690;28;45267;-79
2022/04/01 05:29:13;;;;;;;;;9.25;6.50;;;;;2.82;71.62;100118.22;5071975;28;46168;-80
2022/04/01 05:32:11;;;;;;;;;6.00;4.00;;;;;2.84;70.82;100119.19;5079348;28;45650;-78
2022/04/01 05:34:46;;;;;;;;;3.50;2.25;;;;;2.85;70.85;100126.19;5065321;28;45204;-79
2022/04/01 05:37:13;;;;;;;;;5.25;3.50;;;;;2.62;70.36;100086.91;5078141;28;46237;-79
2022/04/01 05:39:42;;;;;;;;;8.75;5.75;;;;;2.85;70.94;100129.69;5072440;27;45389;-77
2022/04/01 05:42:08;;;;;;;;;3.25;3.25;;;;;2.87;70.19;100120.19;5079467;28;45502;-77
2022/04/01 05:44:34;;;;;;;;;3.50;3.00;;;;;2.64;70.66;100087.00;5075949;28;45417;-78
2022/04/01 05:47:01;;;;;;;;;8.00;5.50;;;;;2.80;70.40;100112.94;5080478;28;45150;-80
2022/04/01 05:49:27;;;;;;;;;6.00;5.00;;;;;2.67;70.25;100103.66;5076802;28;44981;-78
2022/04/01 05:51:54;;;;;;;;;6.50;6.00;;;;;2.61;70.56;100092.97;5094968;27;45936;-75
2022/04/01 05:54:22;;;;;;;;;4.00;4.00;;;;;2.57;70.72;100087.53;5074504;28;45392;-76
2022/04/01 05:56:49;;;;;;;;;11.50;10.00;;;;;2.86;70.31;100138.44;5075670;28;45349;-75
2022/04/01 05:59:20;;;;;;;;;6.25;6.25;;;;;2.86;70.22;100139.31;5076214;28;46335;-75
2022/04/01 06:01:55;;;;;;;;;12.00;9.75;;;;;2.84;70.30;100145.28;5092442;27;45317;-75
2022/04/01 06:04:59;;;;;;;;;8.75;7.00;;;;;2.82;70.39;100149.53;5096674;27;45396;-76
2022/04/01 06:07:31;;;;;;;;;10.50;9.25;;;;;2.77;70.59;100151.94;5070121;28;45422;-75
2022/04/01 06:10:11;;;;;;;;;4.50;4.50;;;;;2.74;70.00;100161.34;5073318;28;45641;-76
2022/04/01 06:12:52;;;;;;;;;10.00;6.00;;;;;2.68;71.23;100152.41;5080022;27;45469;-76
2022/04/01 06:15:36;;;;;;;;;7.50;5.75;;;;;2.56;70.34;100146.66;5080885;27;44769;-77
2022/04/01 06:18:05;;;;;;;;;5.00;5.00;;;;;2.57;71.68;100179.72;5074355;28;46282;-79
2022/04/01 06:20:33;;;;;;;;;7.50;5.75;;;;;2.45;71.33;100148.75;5073364;28;48188;-77
2022/04/01 06:23:06;;;;;;;;;12.00;8.25;;;;;2.49;71.44;100165.44;5076124;28;45337;-76
2022/04/01 06:25:38;;;;;;;;;8.25;5.75;;;;;2.40;71.38;100152.88;5076482;28;45298;-75
2022/04/01 06:28:38;;;;;;;;;13.75;13.00;;;;;2.51;70.84;100181.16;5080388;27;46259;-79
2022/04/01 06:31:06;;;;;;;;;8.00;6.00;;;;;2.49;71.70;100183.69;5075839;28;45792;-78
2022/04/01 06:33:47;;;;;;;;;9.25;9.25;;;;;2.51;71.81;100189.88;5075215;27;45358;-79
2022/04/01 06:36:15;;;;;;;;;13.00;11.00;;;;;2.50;71.90;100192.44;5079269;28;45315;-75
2022/04/01 06:39:01;;;;;;;;;15.25;9.75;;;;;2.47;71.77;100196.69;5070560;28;45430;-76
2022/04/01 06:41:33;;;;;;;;;11.25;9.75;;;;;2.53;71.74;100200.41;5082458;27;45293;-77
2022/04/01 06:43:58;;;;;;;;;12.00;9.00;;;;;2.40;71.82;100184.16;5079162;28;45330;-77
2022/04/01 06:46:24;;;;;;;;;7.50;7.50;;;;;2.44;71.95;100190.44;5081883;28;45354;-77
2022/04/01 06:48:49;;;;;;;;;8.00;8.00;;;;;2.51;71.48;100204.66;5076247;28;45279;-78
2022/04/01 06:51:15;;;;;;;;;13.25;10.00;;;;;2.24;71.59;100176.44;5078626;28;47066;-77
2022/04/01 06:53:41;;;;;;;;;11.75;10.50;;;;;2.37;71.67;100196.16;5078072;28;45396;-80
2022/04/01 06:56:09;;;;;;;;;19.25;19.25;;;;;2.24;72.23;100182.56;5095509;27;45460;-79
2022/04/01 06:58:34;;;;;;;;;13.25;11.25;;;;;2.48;73.17;100215.81;5079098;27;45540;-79
2022/04/01 07:01:00;;;;;;;;;12.75;12.25;;;;;2.44;72.07;100204.38;5079149;28;46801;-79
2022/04/01 07:03:26;;;;;;;;;16.75;14.25;;;;;2.55;72.68;100225.75;5079164;28;45382;-79
2022/04/01 07:05:51;;;;;;;;;13.50;13.25;;;;;2.40;73.05;100193.72;5071841;28;45409;-79
2022/04/01 07:08:19;;;;;;;;;12.00;12.00;;;;;2.54;72.54;100204.78;5078638;27;45619;-78
2022/04/01 07:10:46;;;;;;;;;11.50;11.50;;;;;2.69;71.70;100226.38;5079154;28;46133;-77
2022/04/01 07:13:11;;;;;;;;;13.75;13.00;;;;;2.52;72.02;100193.38;5077388;28;45817;-80
2022/04/01 07:15:36;;;;;;;;;20.00;16.50;;;;;2.75;72.48;100237.09;5079940;27;45318;-79
2022/04/01 07:18:02;;;;;;;;;15.25;13.00;;;;;2.72;71.97;100228.22;5078824;28;45240;-78
2022/04/01 07:20:28;;;;;;;;;14.25;13.50;;;;;2.79;71.68;100243.34;5079540;28;45327;-78
2022/04/01 07:22:54;;;;;;;;;19.00;17.00;;;;;2.59;72.21;100206.78;5076096;28;45477;-79
2022/04/01 07:25:21;;;;;;;;;15.25;11.50;;;;;2.70;71.75;100238.59;5073990;28;45497;-80
2022/04/01 07:27:46;;;;;;;;;14.75;12.00;;;;;2.60;72.38;100228.53;5077382;28;45302;-81
2022/04/01 07:30:12;;;;;;;;;12.75;10.00;;;;;2.66;72.81;100241.88;5089115;27;46993;-80
2022/04/01 07:32:39;;;;;;;;;11.25;10.00;;;;;2.61;72.37;100222.53;5077877;28;45249;-81
2022/04/01 07:35:08;;;;;;;;;14.75;10.50;;;;;2.72;72.17;100259.53;5095481;27;45266;-82
2022/04/01 07:37:34;;;;;;;;;7.00;7.00;;;;;2.66;71.80;100252.31;5078374;28;45269;-80
2022/04/01 07:40:00;;;;;;;;;43.00;36.75;;;;;2.66;71.99;100268.88;5062189;28;45412;-81
2022/04/01 07:42:28;;;;;;;;;16.50;11.25;;;;;2.54;72.22;100246.53;5076221;28;45501;-81
2022/04/01 07:44:53;;;;;;;;;10.50;10.00;;;;;2.58;72.51;100259.81;5067502;27;45396;-79
2022/04/01 07:47:19;;;;;;;;;11.25;8.75;;;;;2.56;73.14;100269.25;5072504;28;45784;-80
2022/04/01 07:49:46;;;;;;;;;13.75;11.00;;;;;2.55;72.80;100248.31;5098455;27;47181;-81
2022/04/01 07:52:13;;;;;;;;;15.75;10.50;;;;;2.61;72.45;100274.72;5079092;27;45496;-82
2022/04/01 07:54:42;;;;;;;;;18.00;13.50;;;;;2.41;72.72;100248.56;5090599;27;45356;-82
2022/04/01 07:57:09;;;;;;;;;12.25;12.25;;;;;2.42;72.76;100250.34;5077970;27;45935;-81
2022/04/01 07:59:35;;;;;;;;;12.00;9.75;;;;;2.61;72.31;100277.31;5077647;27;45647;-80
2022/04/01 08:02:01;;;;;;;;;14.25;12.00;;;;;2.39;72.89;100252.81;5077825;28;45316;-80
2022/04/01 08:04:27;;;;;;;;;15.25;12.00;;;;;2.39;72.40;100249.31;5077882;28;45292;-82
2022/04/01 08:06:55;;;;;;;;;13.00;9.25;;;;;2.54;72.44;100272.63;5097510;27;45647;-82
2022/04/01 08:09:21;;;;;;;;;15.00;15.00;;;;;2.73;73.03;100295.25;5075739;27;45410;-80
2022/04/01 08:11:47;;;;;;;;;14.25;12.50;;;;;2.67;72.50;100295.88;5078783;28;45394;-82
2022/04/01 08:14:13;;;;;;;;;9.75;9.75;;;;;2.75;72.65;100302.34;5074316;28;45458;-82
2022/04/01 08:16:39;;;;;;;;;16.25;14.75;;;;;2.54;72.22;100270.91;5077840;28;46029;-82
2022/04/01 08:19:05;;;;;;;;;13.00;12.00;;;;;2.76;72.30;100306.72;5080022;28;45319;-81
2022/04/01 08:21:32;;;;;;;;;16.00;11.75;;;;;2.74;72.62;100294.44;5079384;28;45289;-79
2022/04/01 08:23:58;;;;;;;;;9.00;9.00;;;;;2.87;72.20;100313.34;5069531;28;45413;-81
2022/04/01 08:26:25;;;;;;;;;13.00;11.50;;;;;2.87;72.19;100322.91;5090824;27;46353;-81
2022/04/01 08:28:51;;;;;;;;;14.00;12.50;;;;;2.88;72.58;100327.28;5068535;28;46546;-79
2022/04/01 08:31:16;;;;;;;;;15.50;12.25;;;;;2.92;72.41;100330.13;5078416;27;45299;-81
2022/04/01 08:33:42;;;;;;;;;12.75;12.75;;;;;2.93;72.12;100333.63;5075701;27;45388;-82
2022/04/01 08:36:08;;;;;;;;;17.00;14.00;;;;;2.96;72.10;100338.09;5077999;28;45360;-81
2022/04/01 08:38:34;;;;;;;;;13.75;12.50;;;;;2.80;72.07;100307.75;5077923;27;47023;-82
2022/04/01 08:41:00;;;;;;;;;8.50;8.50;;;;;2.84;71.60;100312.31;5076812;28;45392;-81
2022/04/01 08:43:31;;;;;;;;;16.75;12.25;;;;;2.92;71.81;100324.03;5077189;27;47315;-81
2022/04/01 08:45:59;;;;;;;;;8.00;8.00;;;;;2.92;71.34;100337.97;5093746;27;45414;-81
2022/04/01 08:48:26;;;;;;;;;15.75;12.00;;;;;3.02;71.67;100354.06;5074996;28;45408;-81
2022/04/01 08:50:51;;;;;;;;;26.75;22.50;;;;;2.80;71.23;100320.81;5081496;27;45249;-82
2022/04/01 08:53:17;;;;;;;;;16.75;12.50;;;;;3.08;71.53;100370.91;5079756;27;45343;-81
2022/04/01 08:56:00;;;;;;;;;16.00;13.00;;;;;2.82;71.40;100319.19;5078467;27;45375;-81
2022/04/01 08:58:26;;;;;;;;;13.50;13.50;;;;;3.08;71.39;100367.38;5081119;28;45236;-81
2022/04/01 09:00:52;;;;;;;;;18.25;13.00;;;;;3.17;71.28;100377.41;5075355;27;45189;-83
2022/04/01 09:03:21;;;;;;;;;14.00;14.00;;;;;3.22;71.41;100375.88;5080109;28;45403;-81
2022/04/01 09:06:02;;;;;;;;;15.75;14.00;;;;;3.16;70.74;100367.75;5080455;28;46184;-81
2022/04/01 09:08:37;;;;;;;;;16.50;13.75;;;;;3.24;70.70;100371.63;5079347;28;47146;-81
2022/04/01 09:11:18;;;;;;;;;14.50;13.00;;;;;3.18;70.72;100381.78;5080300;28;45621;-81
2022/04/01 09:13:43;;;;;;;;;16.25;13.00;;;;;3.26;70.57;100388.28;5080283;27;45368;-81
2022/04/01 09:16:23;;;;;;;;;11.25;11.25;;;;;3.25;70.62;100395.22;5076442;28;44682;-80
2022/04/01 09:18:48;;;;;;;;;14.00;12.50;;;;;3.30;70.47;100405.84;5074695;27;48533;-82
2022/04/01 09:21:14;;;;;;;;;17.00;14.00;;;;;3.22;70.26;100395.06;5096713;27;45725;-78
2022/04/01 09:23:46;;;;;;;;;14.25;14.25;;;;;3.33;70.04;100403.38;5071808;28;45178;-75
2022/04/01 09:26:11;;;;;;;;;14.00;12.50;;;;;3.22;70.07;100383.72;5075813;28;45941;-81
2022/04/01 09:28:39;;;;;;;;;17.75;14.25;;;;;3.34;70.07;100408.69;5073809;28;47083;-80
2022/04/01 09:31:13;;;;;;;;;14.50;14.00;;;;;3.37;69.72;100413.19;5080280;28;45343;-79
2022/04/01 09:33:47;;;;;;;;;18.50;15.25;;;;;3.34;69.92;100413.94;5081803;27;45472;-79
2022/04/01 09:36:14;;;;;;;;;13.50;13.00;;;;;3.28;69.75;100404.91;5082403;27;46511;-78
2022/04/01 09:38:50;;;;;;;;;16.00;11.25;;;;;3.36;69.78;100425.34;5110595;27;46903;-78
2022/04/01 09:41:19;;;;;;;;;13.50;13.00;;;;;3.30;69.24;100414.59;5078158;28;45517;-79
2022/04/01 09:43:44;;;;;;;;;16.00;11.50;;;;;3.11;69.58;100378.00;5076380;28;45555;-79
2022/04/01 09:46:25;;;;;;;;;15.25;12.50;;;;;3.03;69.56;100371.53;5067278;28;45836;-79
2022/04/01 09:48:55;;;;;;;;;13.00;10.25;;;;;3.38;69.45;100442.81;5076952;28;47378;-81
2022/04/01 09:51:21;;;;;;;;;17.00;14.50;;;;;2.92;69.16;100361.47;5080642;28;45319;-79
2022/04/01 09:53:52;;;;;;;;;13.00;11.25;;;;;3.36;69.10;100440.09;5076102;28;46159;-79
2022/04/01 09:56:18;;;;;;;;;11.25;9.00;;;;;3.38;68.97;100450.63;5070453;28;46611;-79
2022/04/01 09:58:44;;;;;;;;;16.00;14.00;;;;;3.25;69.36;100421.34;5078710;28;46503;-79
2022/04/01 10:01:10;;;;;;;;;14.75;14.25;;;;;3.32;69.74;100422.50;5071610;28;45352;-80
2022/04/01 10:03:35;;;;;;;;;25.75;22.25;;;;;3.43;69.58;100441.31;5079030;27;45479;-79
2022/04/01 10:06:01;;;;;;;;;14.25;14.25;;;;;3.54;69.53;100461.00;5079614;28;45386;-80
2022/04/01 10:08:29;;;;;;;;;19.75;15.75;;;;;3.29;69.20;100419.75;5079169;28;45186;-81
2022/04/01 10:10:57;;;;;;;;;18.25;13.75;;;;;3.48;69.10;100461.59;5079479;27;45421;-82
2022/04/01 10:13:29;;;;;;;;;14.75;14.75;;;;;3.50;69.32;100465.19;5079754;27;45365;-80
2022/04/01 10:16:00;;;;;;;;;14.75;13.00;;;;;3.49;69.41;100462.50;5074231;28;45407;-80
2022/04/01 10:18:28;;;;;;;;;15.25;14.75;;;;;3.08;69.35;100386.59;5072344;27;45468;-80
2022/04/01 10:20:55;;;;;;;;;15.25;13.75;;;;;3.52;68.77;100458.28;5078439;28;45198;-81
2022/04/01 10:23:24;;;;;;;;;15.25;13.75;;;;;3.59;68.55;100478.69;5072878;28;45482;-78
2022/04/01 10:26:07;;;;;;;;;14.50;12.00;;;;;3.53;68.50;100459.22;5077918;28;45513;-80
2022/04/01 10:28:32;;;;;;;;;16.50;14.00;;;;;3.51;68.42;100461.75;5071542;27;45627;-79
2022/04/01 10:31:00;;;;;;;;;13.25;13.25;;;;;3.62;68.78;100479.66;5094207;27;45642;-80
2022/04/01 10:33:35;;;;;;;;;16.50;13.25;;;;;3.61;68.31;100488.28;5071993;28;45250;-80
2022/04/01 10:36:14;;;;;;;;;15.00;13.25;;;;;3.59;68.06;100488.25;5080185;27;45453;-79
2022/04/01 10:38:40;;;;;;;;;15.00;15.00;;;;;3.46;68.30;100462.34;5076195;27;46033;-78
2022/04/01 10:41:15;;;;;;;;;26.25;22.25;;;;;3.58;68.15;100489.97;5093701;27;45469;-79
2022/04/01 10:43:47;;;;;;;;;14.00;14.00;;;;;3.56;68.04;100491.59;5079120;28;45410;-78
2022/04/01 10:46:15;;;;;;;;;18.50;16.50;;;;;3.56;68.74;100494.22;5069584;28;45316;-79
2022/04/01 10:52:13;;;;;;;;;18.00;13.25;;;;;3.52;68.23;100499.22;5080905;28;45220;-79
2022/04/01 10:54:44;;;;;;;;;15.75;13.25;;;;;3.47;68.03;100501.59;5086086;27;45197;-80
2022/04/01 10:57:25;;;;;;;;;17.25;13.50;;;;;3.27;68.36;100465.78;5107132;27;46197;-79
2022/04/01 10:59:51;;;;;;;;;14.25;14.25;;;;;3.44;68.62;100506.69;5071593;28;45339;-78
2022/04/01 11:02:22;;;;;;;;;17.00;14.25;;;;;3.30;68.29;100479.00;5077007;28;45327;-82
2022/04/01 11:04:52;;;;;;;;;16.50;14.25;;;;;3.43;68.08;100499.66;5088466;27;45236;-80
2022/04/01 11:07:24;;;;;;;;;17.50;17.50;;;;;3.50;67.64;100512.22;5075894;28;45711;-80
2022/04/01 11:09:52;;;;;;;;;22.00;18.50;;;;;3.49;67.92;100517.34;5088836;27;48490;-77
2022/04/01 11:12:19;;;;;;;;;15.00;15.00;;;;;3.50;68.08;100520.06;5079437;27;45406;-79
2022/04/01 11:14:53;;;;;;;;;12.50;12.50;;;;;3.48;68.01;100526.91;5074227;28;45469;-79
2022/04/01 11:17:19;;;;;;;;;15.25;15.25;;;;;3.35;68.13;100501.91;5079584;28;45386;-81
2022/04/01 11:20:06;;;;;;;;;14.50;10.25;;;;;3.41;68.52;100497.81;5070565;28;46358;-82
2022/04/01 11:22:52;;;;;;;;;16.25;14.50;;;;;3.43;68.55;100531.03;5079110;27;45390;-82
2022/04/01 11:25:33;;;;;;;;;15.50;15.50;;;;;3.45;67.99;100528.50;5073492;28;45239;-80
2022/04/01 11:27:58;;;;;;;;;14.00;11.00;;;;;3.45;67.47;100537.22;5079130;27;45489;-78
2022/04/01 11:30:27;;;;;;;;;18.50;16.75;;;;;3.37;67.83;100520.28;5079849;28;45375;-78
2022/04/01 11:32:58;;;;;;;;;24.25;18.50;;;;;3.46;67.74;100538.13;5077114;28;45248;-79
2022/04/01 11:35:27;;;;;;;;;17.00;15.00;;;;;3.37;68.04;100517.66;5079657;28;45383;-79
2022/04/01 11:37:53;;;;;;;;;20.50;17.00;;;;;3.46;67.83;100525.06;5074345;28;45474;-78
2022/04/01 11:40:22;;;;;;;;;16.00;15.00;;;;;3.44;68.23;100530.19;5065718;27;46508;-79
2022/04/01 11:43:02;;;;;;;;;20.75;16.75;;;;;3.31;67.80;100518.28;5073997;27;45468;-79